createdAt,value
2018-07-14T00:01:03.163Z,6.33
2018-07-14T00:03:30.460Z,6.30
2018-07-14T00:05:57.747Z,7.03
2018-07-14T00:08:25.095Z,6.63
2018-07-14T00:10:52.657Z,6.53
2018-07-14T00:13:19.953Z,6.83
2018-07-14T00:15:47.266Z,6.67
2018-07-14T00:18:14.653Z,6.80
2018-07-14T00:20:42.019Z,6.97
2018-07-14T00:23:10.042Z,6.53
2018-07-14T00:25:42.744Z,6.23
2018-07-14T00:28:10.084Z,5.90
2018-07-14T00:30:37.447Z,6.10
2018-07-14T00:33:04.799Z,6.20
2018-07-14T00:35:32.161Z,7.10
2018-07-14T00:37:59.526Z,6.17
2018-07-14T00:40:26.890Z,6.60
2018-07-14T00:42:54.244Z,6.73
2018-07-14T00:45:21.639Z,6.87
2018-07-14T00:47:48.964Z,6.60
2018-07-14T00:50:16.564Z,6.57
2018-07-14T00:52:44.037Z,7.47
2018-07-14T00:55:11.357Z,6.60
2018-07-14T00:57:38.656Z,6.97
2018-07-14T01:00:06.181Z,7.20
2018-07-14T01:02:33.522Z,7.13
2018-07-14T01:05:00.912Z,6.63
2018-07-14T01:07:28.298Z,7.77
2018-07-14T01:09:55.643Z,7.20
2018-07-14T01:12:22.994Z,7.20
2018-07-14T01:14:50.280Z,7.63
2018-07-14T01:17:17.609Z,6.60
2018-07-14T01:19:44.967Z,7.47
2018-07-14T01:22:12.297Z,9.13
2018-07-14T01:24:39.596Z,7.13
2018-07-14T01:27:06.921Z,7.87
2018-07-14T01:29:34.254Z,7.27
2018-07-14T01:32:02.574Z,7.50
2018-07-14T01:34:30.148Z,7.27
2018-07-14T01:36:57.571Z,7.80
2018-07-14T01:39:24.915Z,8.17
2018-07-14T01:41:52.358Z,7.37
2018-07-14T01:44:19.921Z,6.60
2018-07-14T01:46:47.306Z,7.77
2018-07-14T01:49:15.599Z,7.00
2018-07-14T01:51:42.936Z,10.80
2018-07-14T01:54:10.328Z,6.83
2018-07-14T01:56:37.703Z,7.13
2018-07-14T01:59:05.035Z,7.27
2018-07-14T02:01:32.309Z,7.00
2018-07-14T02:03:59.652Z,7.33
2018-07-14T02:06:31.781Z,7.77
2018-07-14T02:08:59.494Z,7.37
2018-07-14T02:11:26.778Z,7.83
2018-07-14T02:13:54.098Z,9.27
2018-07-14T02:16:21.546Z,7.73
2018-07-14T02:18:48.816Z,7.50
2018-07-14T02:21:16.109Z,6.60
2018-07-14T02:23:43.425Z,7.30
2018-07-14T02:26:10.728Z,8.30
2018-07-14T02:28:38.083Z,7.50
2018-07-14T02:31:05.478Z,7.60
2018-07-14T02:33:32.830Z,7.03
2018-07-14T02:36:00.145Z,8.43
2018-07-14T02:38:27.474Z,7.43
2018-07-14T02:40:54.839Z,8.10
2018-07-14T02:43:22.169Z,7.40
2018-07-14T02:45:49.536Z,7.07
2018-07-14T02:48:17.657Z,7.63
2018-07-14T02:50:46.893Z,8.10
2018-07-14T02:53:14.175Z,8.23
2018-07-14T02:55:41.625Z,8.50
2018-07-14T02:58:08.975Z,7.80
2018-07-14T03:00:37.277Z,8.17
2018-07-14T03:03:04.608Z,7.57
2018-07-14T03:05:31.959Z,7.33
2018-07-14T03:07:59.291Z,7.30
2018-07-14T03:10:30.328Z,8.47
2018-07-14T03:12:57.650Z,7.70
2018-07-14T03:15:24.937Z,8.27
2018-07-14T03:17:54.150Z,10.60
2018-07-14T03:20:21.484Z,10.07
2018-07-14T03:22:48.776Z,7.47
2018-07-14T03:25:16.097Z,9.33
2018-07-14T03:27:43.801Z,8.63
2018-07-14T03:30:11.186Z,7.97
2018-07-14T03:32:38.542Z,7.63
2018-07-14T03:35:06.322Z,7.90
2018-07-14T03:37:34.130Z,7.90
2018-07-14T03:40:01.421Z,7.77
2018-07-14T03:42:28.729Z,8.47
2018-07-14T03:44:56.065Z,7.37
2018-07-14T03:47:23.371Z,8.90
2018-07-14T03:49:50.681Z,8.13
2018-07-14T03:52:17.987Z,8.60
2018-07-14T03:54:45.425Z,8.53
2018-07-14T03:57:12.756Z,7.40
2018-07-14T03:59:40.132Z,7.03
2018-07-14T04:02:07.443Z,8.70
2018-07-14T04:04:34.759Z,7.97
2018-07-14T04:07:02.075Z,9.00
2018-07-14T04:09:29.443Z,9.03
2018-07-14T04:11:58.683Z,9.30
2018-07-14T04:14:26.020Z,8.53
2018-07-14T04:16:53.348Z,8.50
2018-07-14T04:19:24.433Z,8.93
2018-07-14T04:21:51.750Z,9.40
2018-07-14T04:24:19.110Z,9.53
2018-07-14T04:26:46.439Z,9.23
2018-07-14T04:29:13.877Z,10.13
2018-07-14T04:31:41.190Z,9.67
2018-07-14T04:34:08.547Z,9.43
2018-07-14T04:36:36.629Z,9.90
2018-07-14T04:39:04.618Z,9.37
2018-07-14T04:41:34.938Z,9.83
2018-07-14T04:44:02.729Z,9.80
2018-07-14T04:46:30.189Z,9.90
2018-07-14T04:49:01.498Z,8.60
2018-07-14T04:51:28.783Z,8.27
2018-07-14T04:53:56.103Z,9.50
2018-07-14T04:56:23.400Z,7.73
2018-07-14T04:58:50.765Z,8.80
2018-07-14T05:01:18.093Z,8.37
2018-07-14T05:03:45.360Z,7.70
2018-07-14T05:06:16.633Z,8.00
2018-07-14T05:08:43.954Z,7.87
2018-07-14T05:11:11.438Z,7.23
2018-07-14T05:13:38.734Z,7.17
2018-07-14T05:16:06.037Z,7.90
2018-07-14T05:18:33.396Z,7.70
2018-07-14T05:21:00.811Z,7.80
2018-07-14T05:23:31.160Z,6.60
2018-07-14T05:26:02.433Z,7.50
2018-07-14T05:28:29.822Z,8.07
2018-07-14T05:30:57.109Z,7.50
2018-07-14T05:33:24.437Z,7.63
2018-07-14T05:35:51.769Z,6.93
2018-07-14T05:38:20.033Z,6.10
2018-07-14T05:40:52.206Z,6.73
2018-07-14T05:43:19.497Z,6.80
2018-07-14T05:45:46.827Z,6.50
2018-07-14T05:48:14.150Z,6.90
2018-07-14T05:50:46.496Z,6.13
2018-07-14T05:53:13.851Z,7.00
2018-07-14T05:55:41.177Z,6.90
2018-07-14T05:58:09.804Z,9.53
2018-07-14T06:00:37.119Z,6.83
2018-07-14T06:03:04.449Z,7.27
2018-07-14T06:05:31.769Z,6.03
2018-07-14T06:07:59.116Z,7.17
2018-07-14T06:10:26.470Z,6.33
2018-07-14T06:12:53.845Z,6.57
2018-07-14T06:15:21.163Z,5.67
2018-07-14T06:17:48.954Z,6.70
2018-07-14T06:20:17.224Z,6.20
2018-07-14T06:22:44.516Z,6.30
2018-07-14T06:25:11.919Z,6.50
2018-07-14T06:27:41.128Z,5.97
2018-07-14T06:30:08.959Z,6.00
2018-07-14T06:32:36.377Z,6.03
2018-07-14T06:35:03.984Z,6.07
2018-07-14T06:37:34.002Z,6.23
2018-07-14T06:40:01.415Z,5.23
2018-07-14T06:42:28.720Z,5.93
2018-07-14T06:44:56.802Z,5.40
2018-07-14T06:47:27.090Z,5.13
2018-07-14T06:49:54.491Z,5.20
2018-07-14T06:52:22.061Z,5.70
2018-07-14T06:54:49.424Z,6.20
2018-07-14T06:57:16.899Z,5.40
2018-07-14T06:59:44.235Z,5.47
2018-07-14T07:02:11.560Z,5.03
2018-07-14T07:04:39.866Z,6.00
2018-07-14T07:07:10.659Z,5.80
2018-07-14T07:09:38.133Z,10.30
2018-07-14T07:12:09.508Z,5.77
2018-07-14T07:14:37.782Z,7.57
2018-07-14T07:17:05.146Z,5.13
2018-07-14T07:19:33.266Z,5.07
2018-07-14T07:22:01.727Z,6.13
2018-07-14T07:24:29.043Z,5.27
2018-07-14T07:26:56.353Z,5.90
2018-07-14T07:29:25.494Z,5.17
2018-07-14T07:31:52.816Z,5.13
2018-07-14T07:34:20.240Z,5.00
2018-07-14T07:36:51.390Z,5.40
2018-07-14T07:39:19.519Z,4.80
2018-07-14T07:41:46.849Z,5.03
2018-07-14T07:44:14.274Z,6.00
2018-07-14T07:46:46.288Z,8.63
2018-07-14T07:49:13.759Z,6.07
2018-07-14T07:51:43.098Z,4.47
2018-07-14T07:54:10.433Z,5.47
2018-07-14T07:56:38.672Z,5.20
2018-07-14T07:59:06.966Z,5.07
2018-07-14T08:01:36.013Z,5.93
2018-07-14T08:04:06.158Z,5.10
2018-07-14T08:06:40.087Z,5.57
2018-07-14T08:09:07.950Z,4.93
2018-07-14T08:11:36.508Z,4.80
2018-07-14T08:14:05.923Z,5.00
2018-07-14T08:16:35.942Z,5.30
2018-07-14T08:19:03.292Z,4.83
2018-07-14T08:21:30.661Z,5.37
2018-07-14T08:23:58.986Z,5.47
2018-07-14T08:26:27.299Z,5.00
2018-07-14T08:28:54.630Z,5.13
2018-07-14T08:31:21.992Z,4.90
2018-07-14T08:33:49.358Z,4.87
2018-07-14T08:36:16.825Z,5.30
2018-07-14T08:38:44.330Z,5.03
2018-07-14T08:41:16.392Z,5.67
2018-07-14T08:43:43.793Z,4.90
2018-07-14T08:46:11.139Z,5.00
2018-07-14T08:48:38.505Z,5.20
2018-07-14T08:51:06.062Z,4.47
2018-07-14T08:53:34.385Z,4.70
2018-07-14T08:56:01.747Z,4.37
2018-07-14T08:58:29.621Z,4.10
2018-07-14T09:00:58.174Z,5.00
2018-07-14T09:03:25.648Z,6.00
2018-07-14T09:05:53.954Z,4.10
2018-07-14T09:08:21.257Z,4.77
2018-07-14T09:10:48.609Z,4.70
2018-07-14T09:13:16.976Z,4.60
2018-07-14T09:15:44.402Z,4.53
2018-07-14T09:18:11.749Z,4.97
2018-07-14T09:20:40.058Z,4.53
2018-07-14T09:23:07.425Z,5.40
2018-07-14T09:25:34.767Z,4.63
2018-07-14T09:28:02.188Z,5.80
2018-07-14T09:30:29.571Z,5.13
2018-07-14T09:32:56.993Z,5.20
2018-07-14T09:35:26.139Z,5.00
2018-07-14T09:37:53.549Z,5.17
2018-07-14T09:40:23.645Z,4.40
2018-07-14T09:42:52.096Z,4.50
2018-07-14T09:45:19.537Z,4.90
2018-07-14T09:47:49.536Z,4.93
2018-07-14T09:50:17.323Z,4.90
2018-07-14T09:52:44.652Z,4.60
2018-07-14T09:55:12.005Z,5.10
2018-07-14T09:57:40.221Z,5.10
2018-07-14T10:00:11.855Z,4.83
2018-07-14T10:02:39.538Z,4.63
2018-07-14T10:05:06.899Z,4.27
2018-07-14T10:07:34.239Z,5.00
2018-07-14T10:10:01.604Z,4.43
2018-07-14T10:12:28.905Z,4.70
2018-07-14T10:14:57.194Z,5.03
2018-07-14T10:17:25.578Z,5.20
2018-07-14T10:19:52.919Z,4.53
2018-07-14T10:22:20.280Z,6.93
2018-07-14T10:24:47.593Z,5.17
2018-07-14T10:27:14.908Z,4.60
2018-07-14T10:29:42.213Z,5.83
2018-07-14T10:32:09.565Z,4.60
2018-07-14T10:34:36.921Z,4.10
2018-07-14T10:37:07.156Z,5.23
2018-07-14T10:39:34.493Z,4.83
2018-07-14T10:42:01.911Z,5.23
2018-07-14T10:44:29.242Z,4.80
2018-07-14T10:46:56.556Z,5.00
2018-07-14T10:49:23.909Z,5.00
2018-07-14T10:51:51.215Z,5.70
2018-07-14T10:54:23.391Z,5.67
2018-07-14T10:56:50.962Z,6.80
2018-07-14T10:59:19.093Z,6.17
2018-07-14T11:01:49.350Z,6.20
2018-07-14T11:04:16.748Z,6.37
2018-07-14T11:06:44.045Z,6.40
2018-07-14T11:09:12.273Z,5.93
2018-07-14T11:11:44.555Z,5.83
2018-07-14T11:14:11.900Z,5.87
2018-07-14T11:16:39.294Z,6.30
2018-07-14T11:19:06.643Z,8.00
2018-07-14T11:21:37.671Z,5.57
2018-07-14T11:24:05.471Z,6.20
2018-07-14T11:26:32.906Z,5.67
2018-07-14T11:29:00.209Z,5.30
2018-07-14T11:31:27.609Z,5.00
2018-07-14T11:33:54.940Z,4.80
2018-07-14T11:36:22.303Z,5.20
2018-07-14T11:38:49.846Z,4.93
2018-07-14T11:41:17.307Z,5.50
2018-07-14T11:43:46.524Z,5.80
2018-07-14T11:46:14.840Z,5.87
2018-07-14T11:48:42.200Z,5.70
2018-07-14T11:51:09.559Z,5.10
2018-07-14T11:53:36.965Z,6.63
2018-07-14T11:56:08.058Z,5.63
2018-07-14T11:58:35.441Z,5.33
2018-07-14T12:01:02.936Z,5.90
2018-07-14T12:03:30.275Z,6.07
2018-07-14T12:05:59.447Z,5.40
2018-07-14T12:08:26.853Z,5.27
2018-07-14T12:10:54.491Z,5.30
2018-07-14T12:13:21.888Z,5.37
2018-07-14T12:15:49.213Z,5.10
2018-07-14T12:18:16.612Z,5.60
2018-07-14T12:20:43.997Z,6.23
2018-07-14T12:23:11.441Z,5.33
2018-07-14T12:25:40.702Z,4.90
2018-07-14T12:28:08.176Z,5.87
2018-07-14T12:30:35.691Z,6.07
2018-07-14T12:33:03.046Z,5.47
2018-07-14T12:35:31.381Z,5.40
2018-07-14T12:37:58.673Z,5.63
2018-07-14T12:40:26.049Z,5.57
2018-07-14T12:42:55.199Z,5.90
2018-07-14T12:45:22.526Z,6.63
2018-07-14T12:47:52.404Z,6.07
2018-07-14T12:50:20.015Z,5.17
2018-07-14T12:52:48.196Z,5.97
2018-07-14T12:55:15.778Z,5.30
2018-07-14T12:57:44.924Z,5.77
2018-07-14T13:00:12.428Z,5.93
2018-07-14T13:02:40.718Z,5.97
2018-07-14T13:05:08.503Z,5.20
2018-07-14T13:07:35.802Z,6.13
2018-07-14T13:10:04.472Z,5.57
2018-07-14T13:12:31.891Z,6.17
2018-07-14T13:14:59.206Z,5.80
2018-07-14T13:17:26.601Z,5.33
2018-07-14T13:19:53.976Z,5.80
2018-07-14T13:22:21.357Z,5.77
2018-07-14T13:24:48.666Z,5.90
2018-07-14T13:27:15.961Z,5.57
2018-07-14T13:29:43.279Z,6.17
2018-07-14T13:32:10.572Z,5.03
2018-07-14T13:34:37.871Z,5.87
2018-07-14T13:37:05.869Z,6.07
2018-07-14T13:39:33.223Z,5.67
2018-07-14T13:42:00.814Z,6.10
2018-07-14T13:44:28.150Z,5.40
2018-07-14T13:46:55.466Z,5.53
2018-07-14T13:49:22.822Z,4.87
2018-07-14T13:51:50.249Z,6.07
2018-07-14T13:54:17.713Z,6.27
2018-07-14T13:56:45.121Z,8.10
2018-07-14T13:59:12.477Z,5.60
2018-07-14T14:01:39.847Z,5.23
2018-07-14T14:04:07.184Z,5.13
2018-07-14T14:06:34.525Z,5.07
2018-07-14T14:09:01.839Z,4.80
2018-07-14T14:11:30.180Z,5.13
2018-07-14T14:13:57.596Z,5.27
2018-07-14T14:16:24.867Z,5.03
2018-07-14T14:18:52.197Z,6.83
2018-07-14T14:21:19.603Z,5.60
2018-07-14T14:23:47.011Z,5.20
2018-07-14T14:26:14.402Z,5.93
2018-07-14T14:28:41.684Z,5.60
2018-07-14T14:31:09.019Z,5.77
2018-07-14T14:33:36.345Z,5.37
2018-07-14T14:36:03.675Z,5.27
2018-07-14T14:38:31.060Z,5.07
2018-07-14T14:40:58.396Z,5.13
2018-07-14T14:43:25.715Z,5.03
2018-07-14T14:45:53.057Z,6.47
2018-07-14T14:48:20.374Z,4.63
2018-07-14T14:50:47.800Z,5.27
2018-07-14T14:53:15.111Z,4.90
2018-07-14T14:55:42.426Z,5.50
2018-07-14T14:58:10.080Z,5.50
2018-07-14T15:00:37.534Z,6.93
2018-07-14T15:03:04.934Z,5.20
2018-07-14T15:05:32.338Z,5.00
2018-07-14T15:07:59.694Z,5.73
2018-07-14T15:10:27.070Z,5.53
2018-07-14T15:12:54.396Z,5.20
2018-07-14T15:15:22.145Z,5.27
2018-07-14T15:17:49.575Z,5.13
2018-07-14T15:20:16.914Z,4.57
2018-07-14T15:22:44.236Z,4.87
2018-07-14T15:25:11.557Z,4.90
2018-07-14T15:27:38.915Z,4.40
2018-07-14T15:30:06.786Z,4.30
2018-07-14T15:32:34.223Z,5.17
2018-07-14T15:35:01.499Z,4.93
2018-07-14T15:37:28.815Z,4.23
2018-07-14T15:39:56.129Z,4.17
2018-07-14T15:42:23.463Z,5.03
2018-07-14T15:44:50.790Z,4.80
2018-07-14T15:47:18.105Z,5.43
2018-07-14T15:49:45.670Z,5.20
2018-07-14T15:52:13.712Z,5.30
2018-07-14T15:54:41.059Z,5.37
2018-07-14T15:57:08.385Z,4.90
2018-07-14T15:59:35.777Z,4.23
2018-07-14T16:02:03.240Z,4.50
2018-07-14T16:04:30.566Z,5.10
2018-07-14T16:06:57.949Z,4.77
2018-07-14T16:09:25.434Z,5.60
2018-07-14T16:11:52.774Z,5.67
2018-07-14T16:14:20.279Z,7.83
2018-07-14T16:16:47.649Z,5.47
2018-07-14T16:19:15.304Z,5.33
2018-07-14T16:21:42.598Z,5.13
2018-07-14T16:24:09.913Z,5.37
2018-07-14T16:26:37.234Z,6.37
2018-07-14T16:29:04.537Z,6.30
2018-07-14T16:31:31.903Z,5.33
2018-07-14T16:33:59.266Z,5.40
2018-07-14T16:36:26.710Z,5.13
2018-07-14T16:38:54.104Z,5.30
2018-07-14T16:41:21.429Z,6.17
2018-07-14T16:43:48.738Z,5.70
2018-07-14T16:46:17.226Z,5.73
2018-07-14T16:48:44.751Z,6.57
2018-07-14T16:51:12.081Z,5.63
2018-07-14T16:53:39.425Z,5.87
2018-07-14T16:56:07.014Z,5.63
2018-07-14T16:58:34.406Z,6.27
2018-07-14T17:01:01.696Z,5.60
2018-07-14T17:03:29.067Z,5.97
2018-07-14T17:05:56.375Z,6.77
2018-07-14T17:08:23.664Z,6.20
2018-07-14T17:10:51.116Z,6.63
2018-07-14T17:13:18.430Z,6.27
2018-07-14T17:15:45.732Z,6.77
2018-07-14T17:18:13.138Z,6.43
2018-07-14T17:20:40.470Z,6.50
2018-07-14T17:23:07.965Z,5.87
2018-07-14T17:25:35.258Z,6.63
2018-07-14T17:28:02.629Z,6.13
2018-07-14T17:30:30.939Z,6.00
2018-07-14T17:32:58.566Z,5.83
2018-07-14T17:35:25.891Z,6.00
2018-07-14T17:37:53.337Z,5.90
2018-07-14T17:40:20.690Z,5.80
2018-07-14T17:42:48.036Z,5.10
2018-07-14T17:45:15.717Z,5.57
2018-07-14T17:47:43.075Z,5.70
2018-07-14T17:50:10.555Z,11.17
2018-07-14T17:52:38.150Z,6.50
2018-07-14T17:55:05.657Z,6.43
2018-07-14T17:57:32.935Z,5.93
2018-07-14T18:00:00.380Z,5.93
2018-07-14T18:02:27.925Z,6.30
2018-07-14T18:04:55.277Z,6.97
2018-07-14T18:07:22.690Z,5.80
2018-07-14T18:09:49.981Z,6.40
2018-07-14T18:12:17.304Z,5.63
2018-07-14T18:14:44.758Z,6.00
2018-07-14T18:17:12.101Z,5.70
2018-07-14T18:19:39.423Z,5.60
2018-07-14T18:22:06.752Z,6.37
2018-07-14T18:24:34.081Z,5.70
2018-07-14T18:27:01.406Z,5.10
2018-07-14T18:29:29.468Z,6.03
2018-07-14T18:31:56.779Z,5.83
2018-07-14T18:34:26.332Z,6.03
2018-07-14T18:36:57.707Z,6.40
2018-07-14T18:39:25.569Z,5.90
2018-07-14T18:41:53.154Z,6.50
2018-07-14T18:44:20.678Z,5.57
2018-07-14T18:46:48.082Z,5.70
2018-07-14T18:49:15.645Z,6.03
2018-07-14T18:51:44.074Z,6.10
2018-07-14T18:54:11.438Z,6.13
2018-07-14T18:56:38.974Z,6.83
2018-07-14T18:59:06.913Z,7.57
2018-07-14T19:01:34.644Z,6.83
2018-07-14T19:04:02.373Z,6.20
2018-07-14T19:06:29.798Z,6.43
2018-07-14T19:08:57.685Z,6.53
2018-07-14T19:11:25.184Z,6.27
2018-07-14T19:13:52.776Z,6.70
2018-07-14T19:16:20.207Z,6.10
2018-07-14T19:18:48.605Z,6.27
2018-07-14T19:21:16.245Z,5.50
2018-07-14T19:23:43.869Z,6.57
2018-07-14T19:26:11.708Z,6.20
2018-07-14T19:28:39.366Z,6.27
2018-07-14T19:31:06.816Z,6.07
2018-07-14T19:33:34.429Z,6.40
2018-07-14T19:36:04.104Z,7.60
2018-07-14T19:38:32.240Z,6.97
2018-07-14T19:40:59.958Z,6.90
2018-07-14T19:43:27.490Z,6.30
2018-07-14T19:45:56.442Z,7.47
2018-07-14T19:48:24.043Z,6.37
2018-07-14T19:50:51.543Z,6.77
2018-07-14T19:53:18.995Z,6.30
2018-07-14T19:55:47.161Z,5.87
2018-07-14T19:58:14.674Z,5.90
2018-07-14T20:00:42.375Z,5.87
2018-07-14T20:03:10.246Z,6.80
2018-07-14T20:05:38.789Z,5.90
2018-07-14T20:08:06.332Z,6.13
2018-07-14T20:10:33.744Z,6.73
2018-07-14T20:13:01.899Z,6.50
2018-07-14T20:15:29.610Z,6.40
2018-07-14T20:17:56.970Z,6.60
2018-07-14T20:20:24.248Z,6.07
2018-07-14T20:22:51.556Z,6.63
2018-07-14T20:25:18.893Z,6.53
2018-07-14T20:27:46.307Z,7.77
2018-07-14T20:30:13.618Z,5.80
2018-07-14T20:32:40.959Z,6.20
2018-07-14T20:35:08.226Z,6.30
2018-07-14T20:37:35.580Z,6.97
2018-07-14T20:40:03.278Z,6.20
2018-07-14T20:42:30.654Z,7.13
2018-07-14T20:44:57.987Z,6.33
2018-07-14T20:47:25.326Z,6.53
2018-07-14T20:49:52.627Z,6.37
2018-07-14T20:52:19.993Z,6.40
2018-07-14T20:54:47.410Z,7.07
2018-07-14T20:57:14.725Z,6.70
2018-07-14T20:59:42.007Z,6.47
2018-07-14T21:02:09.344Z,7.00
2018-07-14T21:04:36.695Z,8.33
2018-07-14T21:07:04.063Z,7.07
2018-07-14T21:09:31.391Z,6.70
2018-07-14T21:11:58.729Z,7.57
2018-07-14T21:14:26.011Z,7.23
2018-07-14T21:16:53.347Z,7.13
2018-07-14T21:19:20.714Z,7.67
2018-07-14T21:21:48.002Z,9.73
2018-07-14T21:24:15.327Z,9.17
2018-07-14T21:26:42.604Z,7.07
2018-07-14T21:29:10.013Z,7.87
2018-07-14T21:31:37.316Z,7.60
2018-07-14T21:34:04.675Z,6.70
2018-07-14T21:36:32.030Z,11.43
2018-07-14T21:38:59.364Z,7.67
2018-07-14T21:41:26.658Z,9.20
2018-07-14T21:43:54.989Z,8.50
2018-07-14T21:46:22.273Z,9.20
2018-07-14T21:48:49.753Z,8.23
2018-07-14T21:51:17.062Z,9.77
2018-07-14T21:53:44.394Z,10.37
2018-07-14T21:56:11.717Z,8.70
2018-07-14T21:58:39.056Z,8.30
2018-07-14T22:01:11.613Z,8.60
2018-07-14T22:03:38.912Z,10.33
2018-07-14T22:06:06.205Z,8.80
2018-07-14T22:08:33.531Z,8.37
2018-07-14T22:11:01.326Z,8.83
2018-07-14T22:13:28.679Z,8.10
2018-07-14T22:15:55.976Z,8.83
2018-07-14T22:18:23.359Z,8.47
2018-07-14T22:20:50.659Z,7.40
2018-07-14T22:23:18.066Z,7.60
2018-07-14T22:25:45.348Z,7.07
2018-07-14T22:28:12.679Z,7.63
2018-07-14T22:30:39.967Z,7.60
2018-07-14T22:33:07.293Z,6.67
2018-07-14T22:35:34.668Z,8.40
2018-07-14T22:38:01.984Z,7.47
2018-07-14T22:40:29.309Z,7.40
2018-07-14T22:42:56.618Z,7.53
2018-07-14T22:45:23.951Z,8.73
2018-07-14T22:47:51.240Z,7.70
2018-07-14T22:50:18.554Z,7.87
2018-07-14T22:52:45.882Z,7.77
2018-07-14T22:55:13.195Z,7.33
2018-07-14T22:57:40.533Z,8.07
2018-07-14T23:00:08.327Z,8.27
2018-07-14T23:02:35.676Z,7.70
2018-07-14T23:05:02.983Z,8.17
2018-07-14T23:07:30.334Z,8.00
2018-07-14T23:09:57.654Z,7.57
2018-07-14T23:12:24.980Z,7.77
2018-07-14T23:14:52.297Z,8.20
2018-07-14T23:17:19.742Z,7.70
2018-07-14T23:19:47.041Z,7.37
2018-07-14T23:22:14.310Z,7.90
2018-07-14T23:24:41.678Z,6.80
2018-07-14T23:27:08.925Z,8.30
2018-07-14T23:29:36.185Z,7.60
2018-07-14T23:32:03.488Z,6.47
2018-07-14T23:34:30.757Z,7.93
2018-07-14T23:36:58.216Z,7.87
2018-07-14T23:39:25.545Z,7.93
2018-07-14T23:41:52.917Z,7.80
2018-07-14T23:44:20.202Z,7.87
2018-07-14T23:46:48.081Z,7.93
2018-07-14T23:49:15.421Z,8.37
2018-07-14T23:51:42.776Z,7.60
2018-07-14T23:54:10.080Z,8.93
2018-07-14T23:56:37.380Z,7.93
2018-07-14T23:59:05.741Z,8.27
